Groveland, New York
Current Conditions -  °F | °C
As of 7:54 AM on Thursday 30 Oct 2014 (Local Time) from KDSV Reporting Station
Overcast Overcast  
Wind Chill: 43°   Ceiling: 2600
Heat Index: 43°   Visibility: 10mi
Dew Point: 37°   Wind: 3mph
Humidity: 80%   Direction: 340°NNW
Pressure: 30.05"   Gusts: NA
Location:  42.66°N, 77.77°W
Report Text: KDSV 301154Z AUTO 34003KT 10SM OVC026 06/03 A3005 RMK AO2 SLP188 T00610028 10078 20044 51015
Loading
Personal Weather Stations






























Interactive Weather Map
Tropical Storm Tracking
New forecast layout! Learn more

10-Day Weather Forecast

Advertisements
Track Severe Weather on mobile